Time;durP1;ratioP1;P1;durP2;ratioP2;P2;SDS_P1;SDS_P2;PMS_P1;PMS_P2;Temp;Humidity;BMP_temperature;BMP_pressure;BME280_temperature;BME280_humidity;BME280_pressure;Samples;Min_cycle;Max_cycle;Signal;HPM_P1;HPM_P2
2022/12/03 00:01:23;;;;;;;24.70;13.00;;;5.80;65.80;;;;;;5041965;28;20033;-62
2022/12/03 00:03:48;;;;;;;24.73;13.00;;;5.80;65.80;;;;;;5040382;28;20130;-62
2022/12/03 00:06:14;;;;;;;24.60;12.23;;;5.80;65.80;;;;;;5044706;28;20029;-63
2022/12/03 00:08:39;;;;;;;25.90;13.60;;;5.80;65.80;;;;;;5041227;28;20080;-63
2022/12/03 00:11:06;;;;;;;25.80;13.17;;;5.80;65.80;;;;;;5049609;28;20108;-62
2022/12/03 00:13:31;;;;;;;26.53;13.77;;;5.90;65.90;;;;;;5042766;28;20037;-62
2022/12/03 00:15:57;;;;;;;23.83;12.67;;;5.90;65.80;;;;;;5038387;28;20057;-62
2022/12/03 00:18:23;;;;;;;23.63;13.17;;;5.80;65.80;;;;;;5051894;28;20052;-62
2022/12/03 00:20:48;;;;;;;25.30;12.87;;;5.80;65.80;;;;;;5042891;28;20091;-62
2022/12/03 00:23:14;;;;;;;24.63;12.80;;;5.80;65.80;;;;;;5050351;28;20028;-62
2022/12/03 00:25:39;;;;;;;26.00;13.90;;;5.80;65.90;;;;;;5044844;28;20438;-62
2022/12/03 00:28:05;;;;;;;25.07;13.43;;;5.80;66.00;;;;;;5049882;28;20029;-62
2022/12/03 00:30:30;;;;;;;25.77;13.87;;;5.80;66.00;;;;;;5047099;28;20064;-62
2022/12/03 00:32:56;;;;;;;27.33;14.87;;;5.80;66.10;;;;;;5044243;28;20025;-62
2022/12/03 00:35:22;;;;;;;24.17;13.07;;;5.80;66.10;;;;;;5047436;28;20021;-62
2022/12/03 00:37:47;;;;;;;26.20;13.00;;;5.80;66.10;;;;;;5037413;28;20037;-63
2022/12/03 00:40:13;;;;;;;27.33;13.70;;;5.80;66.10;;;;;;5045747;28;20051;-62
2022/12/03 00:42:39;;;;;;;24.63;13.60;;;5.80;66.10;;;;;;5040964;28;20037;-63
2022/12/03 00:45:05;;;;;;;26.90;13.40;;;5.80;66.10;;;;;;5038990;28;20039;-62
2022/12/03 00:47:31;;;;;;;28.10;14.37;;;5.80;66.10;;;;;;5047696;28;20035;-62
2022/12/03 00:49:56;;;;;;;25.37;12.93;;;5.80;66.20;;;;;;5039819;28;20108;-62
2022/12/03 00:52:22;;;;;;;25.17;14.30;;;5.80;66.20;;;;;;5042337;28;20033;-62
2022/12/03 00:54:47;;;;;;;23.33;13.03;;;5.80;66.30;;;;;;5035236;28;20037;-62
2022/12/03 00:57:13;;;;;;;27.37;14.77;;;5.80;66.30;;;;;;5045012;28;20381;-62
2022/12/03 00:59:39;;;;;;;24.83;14.20;;;5.80;66.40;;;;;;5040661;28;20355;-62
2022/12/03 01:02:05;;;;;;;26.80;14.77;;;5.80;66.40;;;;;;5037881;28;20033;-63
2022/12/03 01:04:32;;;;;;;28.40;14.40;;;5.80;66.50;;;;;;5034587;28;20044;-62
2022/12/03 01:06:58;;;;;;;29.97;15.30;;;5.80;66.50;;;;;;5041131;28;20094;-62
2022/12/03 01:09:24;;;;;;;27.57;15.27;;;5.80;66.60;;;;;;5043912;28;20037;-62
2022/12/03 01:11:50;;;;;;;27.47;14.77;;;5.80;66.60;;;;;;5040537;28;20025;-62
2022/12/03 01:14:18;;;;;;;25.33;14.20;;;5.80;66.60;;;;;;5037551;28;20064;-62
2022/12/03 01:16:44;;;;;;;28.80;14.23;;;5.80;66.70;;;;;;5037134;28;20021;-62
2022/12/03 01:19:14;;;;;;;28.43;14.93;;;5.80;66.70;;;;;;5033568;28;20446;-63
2022/12/03 01:21:42;;;;;;;27.37;14.20;;;5.80;66.80;;;;;;5034181;28;20055;-63
2022/12/03 01:24:08;;;;;;;28.03;15.20;;;5.80;66.80;;;;;;5034757;28;20057;-62
2022/12/03 01:26:33;;;;;;;29.40;15.30;;;5.70;66.90;;;;;;5032793;28;20052;-63
2022/12/03 01:28:59;;;;;;;27.93;14.00;;;5.80;67.00;;;;;;5033976;28;20047;-63
2022/12/03 01:34:09;;;;;;;26.93;14.47;;;5.80;67.10;;;;;;5035292;28;20052;-63
2022/12/03 01:36:34;;;;;;;31.37;15.53;;;5.70;67.00;;;;;;5034135;28;20026;-63
2022/12/03 01:39:01;;;;;;;27.37;14.50;;;5.70;67.10;;;;;;5035185;28;20112;-62
2022/12/03 01:41:28;;;;;;;27.80;15.90;;;5.80;67.20;;;;;;5035039;28;20052;-63
2022/12/03 01:43:55;;;;;;;28.50;15.13;;;5.80;67.30;;;;;;5034046;28;20092;-63
2022/12/03 01:46:24;;;;;;;26.43;13.90;;;5.70;67.30;;;;;;5030522;28;20029;-63
2022/12/03 01:48:52;;;;;;;29.03;14.97;;;5.70;67.30;;;;;;5034334;28;20450;-62
2022/12/03 01:51:18;;;;;;;26.00;14.07;;;5.70;67.40;;;;;;5034436;28;20025;-62
2022/12/03 01:53:44;;;;;;;28.40;14.47;;;5.70;67.40;;;;;;5033529;28;20105;-62
2022/12/03 01:56:17;;;;;;;28.10;13.80;;;5.70;67.40;;;;;;5033898;28;20087;-63
2022/12/03 01:58:43;;;;;;;31.23;15.23;;;5.80;67.50;;;;;;5033953;28;20029;-62
2022/12/03 02:01:13;;;;;;;29.40;15.53;;;5.80;67.60;;;;;;5034616;28;20107;-62
2022/12/03 02:03:39;;;;;;;28.67;15.87;;;5.80;67.60;;;;;;5032622;28;20037;-62
2022/12/03 02:06:16;;;;;;;27.33;14.63;;;5.80;67.60;;;;;;5024496;28;20373;-62
2022/12/03 02:08:42;;;;;;;28.50;15.07;;;5.80;67.60;;;;;;5033501;28;20029;-62
2022/12/03 02:11:30;;;;;;;27.57;13.40;;;5.80;67.60;;;;;;5034278;28;20061;-63
2022/12/03 02:14:03;;;;;;;26.50;13.50;;;5.80;67.60;;;;;;5022977;28;20035;-63
2022/12/03 02:16:29;;;;;;;27.30;15.57;;;5.80;67.70;;;;;;5033254;28;20022;-62
2022/12/03 02:18:56;;;;;;;27.03;14.37;;;5.70;67.70;;;;;;5032434;28;20413;-62
2022/12/03 02:21:39;;;;;;;29.80;15.30;;;5.70;67.80;;;;;;5032499;28;20151;-62
2022/12/03 02:24:34;;;;;;;26.67;14.50;;;5.70;67.80;;;;;;5021470;28;20048;-63
2022/12/03 02:27:00;;;;;;;26.13;14.03;;;5.80;67.80;;;;;;5033278;28;20602;-62
2022/12/03 02:29:25;;;;;;;27.77;14.20;;;5.70;67.70;;;;;;5033572;28;20034;-62
2022/12/03 02:31:51;;;;;;;27.87;14.67;;;5.70;67.80;;;;;;5033059;28;20065;-62
2022/12/03 02:34:37;;;;;;;28.00;13.97;;;5.70;67.90;;;;;;5032348;28;20319;-62
2022/12/03 02:37:04;;;;;;;29.90;15.13;;;5.70;67.80;;;;;;5023104;28;20104;-62
2022/12/03 02:39:31;;;;;;;28.10;14.77;;;5.70;67.80;;;;;;5034003;28;20044;-62
2022/12/03 02:44:41;;;;;;;30.67;16.83;;;5.70;67.80;;;;;;5033458;28;20029;-63
2022/12/03 02:47:07;;;;;;;29.37;15.07;;;5.70;67.80;;;;;;5032158;28;20026;-63
2022/12/03 02:49:33;;;;;;;29.47;15.13;;;5.70;67.90;;;;;;5033322;28;20033;-63
2022/12/03 02:51:58;;;;;;;29.60;17.37;;;5.70;67.90;;;;;;5046698;28;20029;-63
2022/12/03 02:54:24;;;;;;;29.10;15.70;;;5.70;67.90;;;;;;5032701;28;20029;-62
2022/12/03 02:56:50;;;;;;;30.03;15.60;;;5.70;67.90;;;;;;5048601;28;20021;-63
2022/12/03 02:59:16;;;;;;;31.00;15.27;;;5.70;68.00;;;;;;5041884;28;20068;-62
2022/12/03 03:01:42;;;;;;;28.90;15.40;;;5.70;68.00;;;;;;5033492;28;20058;-62
2022/12/03 03:04:08;;;;;;;29.33;16.17;;;5.70;68.00;;;;;;5032902;28;20030;-63
2022/12/03 03:06:34;;;;;;;30.77;15.87;;;5.70;68.00;;;;;;5046567;28;20033;-63
2022/12/03 03:08:59;;;;;;;30.87;16.90;;;5.70;68.10;;;;;;5032221;28;20059;-63
2022/12/03 03:11:26;;;;;;;28.47;14.57;;;5.70;68.10;;;;;;5032090;28;20037;-63
2022/12/03 03:13:51;;;;;;;29.53;16.20;;;5.70;68.10;;;;;;5032624;28;20032;-63
2022/12/03 03:16:17;;;;;;;29.87;15.83;;;5.70;68.10;;;;;;5032525;28;20354;-63
2022/12/03 03:18:43;;;;;;;26.33;15.60;;;5.70;68.10;;;;;;5033222;28;20105;-63
2022/12/03 03:21:09;;;;;;;28.03;14.87;;;5.70;68.10;;;;;;5048644;28;20508;-63
2022/12/03 03:23:34;;;;;;;25.73;14.03;;;5.70;68.10;;;;;;5031271;28;20421;-63
2022/12/03 03:26:06;;;;;;;27.83;15.33;;;5.70;68.10;;;;;;5031858;28;20327;-63
2022/12/03 03:28:35;;;;;;;26.90;13.77;;;5.70;67.90;;;;;;5033446;28;20040;-63
2022/12/03 03:31:04;;;;;;;27.97;13.87;;;5.70;67.90;;;;;;5032504;28;20133;-63
2022/12/03 03:33:30;;;;;;;26.50;13.33;;;5.70;67.70;;;;;;5033610;28;20025;-63
2022/12/03 03:35:58;;;;;;;26.33;14.03;;;5.60;67.60;;;;;;5032255;28;20029;-63
2022/12/03 03:38:24;;;;;;;24.23;13.20;;;5.70;67.60;;;;;;5032607;28;20036;-62
2022/12/03 03:40:51;;;;;;;24.97;13.77;;;5.60;67.50;;;;;;5025019;28;20033;-62
2022/12/03 03:43:18;;;;;;;22.87;12.70;;;5.60;67.40;;;;;;5033846;28;20034;-62
2022/12/03 03:45:44;;;;;;;23.90;12.33;;;5.60;67.40;;;;;;5030766;28;20096;-62
2022/12/03 03:48:11;;;;;;;23.40;12.77;;;5.50;67.20;;;;;;5033318;28;20025;-63
2022/12/03 03:50:37;;;;;;;23.07;12.80;;;5.60;67.20;;;;;;5033307;28;20072;-63
2022/12/03 03:53:03;;;;;;;24.20;12.73;;;5.60;67.00;;;;;;5032702;28;20454;-63
2022/12/03 03:55:30;;;;;;;19.13;11.47;;;5.60;66.90;;;;;;5031659;28;20017;-62
2022/12/03 03:57:56;;;;;;;24.43;12.80;;;5.60;66.80;;;;;;5032901;28;20350;-63
2022/12/03 04:00:21;;;;;;;24.23;12.30;;;5.60;66.70;;;;;;5032201;28;20026;-63
2022/12/03 04:02:47;;;;;;;22.60;11.90;;;5.60;66.60;;;;;;5046684;28;20069;-63
2022/12/03 04:05:18;;;;;;;23.03;12.10;;;5.60;66.50;;;;;;5032494;28;20025;-63
2022/12/03 04:07:44;;;;;;;24.08;12.57;;;5.60;66.50;;;;;;5031764;28;20040;-63
2022/12/03 04:12:54;;;;;;;23.60;13.23;;;5.50;66.30;;;;;;5031205;28;20025;-63
2022/12/03 04:15:20;;;;;;;22.60;12.40;;;5.50;66.40;;;;;;5032414;28;20212;-63
2022/12/03 04:18:41;;;;;;;23.63;13.57;;;5.50;66.30;;;;;;5030765;28;20025;-63
2022/12/03 04:20:31;;;;;;;22.33;11.87;;;5.60;66.30;;;;;;5032673;28;20048;-62
2022/12/03 04:22:57;;;;;;;24.43;13.07;;;5.50;66.20;;;;;;5030888;28;20169;-63
2022/12/03 04:30:52;;;;;;;23.40;12.20;;;5.50;66.20;;;;;;5029253;28;20449;-63
2022/12/03 04:36:02;;;;;;;27.47;13.07;;;5.50;66.10;;;;;;5039450;28;20029;-63
2022/12/03 04:38:27;;;;;;;25.23;11.90;;;5.50;66.10;;;;;;5040027;28;20365;-63
2022/12/03 04:41:00;;;;;;;25.50;12.30;;;5.40;66.10;;;;;;5034186;28;20253;-63
2022/12/03 04:43:27;;;;;;;26.52;13.13;;;5.40;66.00;;;;;;5036025;28;20354;-63
2022/12/03 04:45:53;;;;;;;21.63;11.90;;;5.40;66.00;;;;;;5035435;28;20390;-64
2022/12/03 04:48:19;;;;;;;25.57;14.77;;;5.40;66.10;;;;;;5032618;28;20053;-63
2022/12/03 04:50:44;;;;;;;29.97;14.93;;;5.40;66.10;;;;;;5033553;28;20034;-63
2022/12/03 04:53:10;;;;;;;24.10;12.47;;;5.40;66.80;;;;;;5033941;28;20025;-63
2022/12/03 04:55:36;;;;;;;23.10;12.50;;;5.40;66.10;;;;;;5034289;28;20084;-62
2022/12/03 04:58:01;;;;;;;25.43;13.43;;;5.40;66.20;;;;;;5033217;28;20029;-62
2022/12/03 05:00:27;;;;;;;26.13;13.33;;;5.40;66.30;;;;;;5034562;28;20089;-63
2022/12/03 05:02:52;;;;;;;25.27;14.00;;;5.40;66.30;;;;;;5034311;28;20031;-63
2022/12/03 05:05:18;;;;;;;27.00;14.17;;;5.30;66.30;;;;;;5034245;28;20364;-63
2022/12/03 05:07:44;;;;;;;26.23;14.53;;;5.40;66.40;;;;;;5034091;28;20033;-63
2022/12/03 05:10:10;;;;;;;24.20;13.70;;;5.40;66.50;;;;;;5034695;28;20025;-63
2022/12/03 05:12:36;;;;;;;27.50;14.77;;;5.40;66.50;;;;;;5035709;28;20029;-63
2022/12/03 05:15:03;;;;;;;30.00;15.47;;;5.40;66.50;;;;;;5034001;28;20046;-63
2022/12/03 05:17:28;;;;;;;29.07;15.27;;;5.40;66.50;;;;;;5034347;28;20029;-63
2022/12/03 05:22:38;;;;;;;28.50;14.47;;;5.40;66.60;;;;;;5029401;28;20111;-63
2022/12/03 05:25:05;;;;;;;30.80;15.30;;;5.30;66.60;;;;;;5033988;28;20076;-62
2022/12/03 05:27:30;;;;;;;27.80;14.33;;;5.30;66.70;;;;;;5035459;28;20037;-63
2022/12/03 05:29:56;;;;;;;29.90;15.70;;;5.40;66.80;;;;;;5034260;28;20365;-63
2022/12/03 05:32:22;;;;;;;27.27;15.10;;;5.30;66.80;;;;;;5034266;28;20021;-63
2022/12/03 05:34:47;;;;;;;28.13;15.10;;;5.30;66.80;;;;;;5034429;28;20030;-63
2022/12/03 05:37:13;;;;;;;29.10;15.87;;;5.30;66.90;;;;;;5034706;28;20032;-63
2022/12/03 05:39:39;;;;;;;26.97;14.80;;;5.30;67.00;;;;;;5034606;28;20128;-62
2022/12/03 05:44:53;;;;;;;28.63;15.20;;;5.30;67.10;;;;;;5013869;28;20123;-63
2022/12/03 05:47:19;;;;;;;31.83;15.70;;;5.30;67.20;;;;;;5012606;28;20041;-63
2022/12/03 05:49:44;;;;;;;32.77;17.23;;;5.30;67.20;;;;;;5013026;28;20560;-63
2022/12/03 05:52:10;;;;;;;27.23;15.27;;;5.30;67.30;;;;;;5012866;28;20060;-63
2022/12/03 05:54:35;;;;;;;26.63;14.70;;;5.30;67.40;;;;;;5012594;28;20632;-63
2022/12/03 05:57:01;;;;;;;31.70;16.27;;;5.20;67.40;;;;;;5012379;28;20045;-63
2022/12/03 05:59:27;;;;;;;31.00;16.00;;;5.20;67.40;;;;;;5013390;28;20034;-63
2022/12/03 06:01:52;;;;;;;28.67;15.53;;;5.20;67.40;;;;;;5012735;28;20120;-63
2022/12/03 06:04:18;;;;;;;32.57;15.73;;;5.20;67.50;;;;;;5013411;28;20034;-63
2022/12/03 06:06:44;;;;;;;29.73;16.03;;;5.30;67.50;;;;;;5012682;28;20038;-63
2022/12/03 06:09:09;;;;;;;27.50;14.80;;;5.30;67.60;;;;;;5012758;28;20044;-63
2022/12/03 06:11:36;;;;;;;31.50;16.80;;;5.30;67.60;;;;;;5007529;28;20038;-62
2022/12/03 06:14:02;;;;;;;29.10;15.33;;;5.30;67.50;;;;;;5013556;28;20033;-63
2022/12/03 06:16:28;;;;;;;27.90;15.03;;;5.30;67.60;;;;;;5012215;28;20091;-63
2022/12/03 06:18:53;;;;;;;27.67;13.93;;;5.30;67.50;;;;;;5012083;28;20046;-63
2022/12/03 06:21:19;;;;;;;25.27;12.27;;;5.20;67.60;;;;;;5018573;28;20064;-63
2022/12/03 06:23:45;;;;;;;27.60;12.47;;;5.20;67.50;;;;;;5031357;28;20044;-63
2022/12/03 06:26:11;;;;;;;25.77;12.53;;;5.20;67.60;;;;;;5031492;28;20134;-63
2022/12/03 06:28:37;;;;;;;26.60;12.93;;;5.10;67.70;;;;;;5032570;28;20422;-63
2022/12/03 06:31:03;;;;;;;28.43;12.53;;;5.10;67.80;;;;;;5032492;28;20040;-63
2022/12/03 06:33:28;;;;;;;25.70;12.03;;;5.10;67.90;;;;;;5033455;28;20029;-63
2022/12/03 06:35:54;;;;;;;26.57;12.30;;;5.10;67.80;;;;;;5033327;28;20042;-62
2022/12/03 06:38:19;;;;;;;24.07;12.03;;;5.20;67.90;;;;;;5030253;28;20068;-63
2022/12/03 06:40:45;;;;;;;23.73;11.50;;;5.10;67.90;;;;;;5032210;28;20081;-63
2022/12/03 06:43:10;;;;;;;22.80;12.17;;;5.20;68.00;;;;;;5030962;28;20025;-63
2022/12/03 06:45:36;;;;;;;25.07;11.20;;;5.20;68.00;;;;;;5026604;28;20033;-62
2022/12/03 06:48:02;;;;;;;23.63;11.07;;;5.10;68.00;;;;;;5040731;28;20034;-63
2022/12/03 06:50:27;;;;;;;25.57;11.90;;;5.10;68.10;;;;;;5047176;28;20028;-63
2022/12/03 06:52:53;;;;;;;23.07;11.97;;;5.10;68.10;;;;;;5033468;28;20029;-62
2022/12/03 06:55:19;;;;;;;26.03;12.97;;;5.20;68.10;;;;;;5036760;28;20370;-63
2022/12/03 06:57:44;;;;;;;27.33;12.47;;;5.10;68.10;;;;;;5038285;28;20112;-62
2022/12/03 07:00:10;;;;;;;24.93;13.67;;;5.10;68.20;;;;;;5034079;28;20442;-62
2022/12/03 07:02:36;;;;;;;24.90;12.80;;;5.10;68.20;;;;;;5034219;28;20040;-62
2022/12/03 07:05:02;;;;;;;26.20;12.97;;;5.20;68.30;;;;;;5034421;28;20029;-62
2022/12/03 07:07:30;;;;;;;28.40;13.60;;;5.20;68.30;;;;;;5026474;28;20044;-62
2022/12/03 07:09:56;;;;;;;27.77;14.07;;;5.10;68.30;;;;;;5033839;28;20022;-65
2022/12/03 07:12:21;;;;;;;29.40;14.70;;;5.10;68.40;;;;;;5033620;28;20105;-63
2022/12/03 07:14:47;;;;;;;32.27;15.60;;;5.10;68.50;;;;;;5035060;28;20091;-63
2022/12/03 07:17:13;;;;;;;31.03;15.40;;;5.10;68.70;;;;;;5034518;28;20048;-62
2022/12/03 07:19:38;;;;;;;29.70;14.57;;;5.00;68.80;;;;;;5033910;28;20350;-62
2022/12/03 07:22:04;;;;;;;31.70;16.03;;;5.00;68.80;;;;;;5032422;28;20033;-63
2022/12/03 07:24:29;;;;;;;31.03;14.33;;;5.00;68.90;;;;;;5032911;28;20067;-62
2022/12/03 07:26:55;;;;;;;30.17;15.17;;;5.00;68.90;;;;;;5032765;28;20034;-63
2022/12/03 07:29:21;;;;;;;28.00;14.73;;;5.10;69.00;;;;;;5032586;28;20067;-63
2022/12/03 07:31:46;;;;;;;30.23;15.63;;;5.00;69.10;;;;;;5032547;28;20171;-63
2022/12/03 07:34:12;;;;;;;32.37;14.97;;;5.10;69.10;;;;;;5030306;28;20028;-62
2022/12/03 07:36:38;;;;;;;35.37;17.47;;;5.10;69.10;;;;;;5031298;28;20038;-63
2022/12/03 07:39:04;;;;;;;36.90;17.60;;;5.10;69.00;;;;;;5029703;28;20077;-63
2022/12/03 07:41:29;;;;;;;34.40;16.67;;;5.10;69.00;;;;;;5031948;28;20053;-64
2022/12/03 07:43:55;;;;;;;39.27;19.53;;;5.10;69.00;;;;;;5030388;28;20065;-65
2022/12/03 07:46:21;;;;;;;34.33;17.60;;;5.10;68.90;;;;;;5048271;28;20033;-65
2022/12/03 07:48:46;;;;;;;34.67;17.33;;;5.10;68.90;;;;;;5032186;28;20040;-64
2022/12/03 07:51:12;;;;;;;38.70;19.03;;;5.10;69.00;;;;;;5030619;28;20057;-63
2022/12/03 07:53:38;;;;;;;38.87;18.60;;;5.10;69.00;;;;;;5029318;28;20064;-66
2022/12/03 07:56:04;;;;;;;42.93;19.70;;;5.10;69.00;;;;;;5031953;28;20056;-63
2022/12/03 07:58:30;;;;;;;39.60;19.00;;;5.20;69.00;;;;;;5031721;28;20513;-65
2022/12/03 08:00:56;;;;;;;36.57;18.37;;;5.20;69.00;;;;;;5032679;28;20116;-66
2022/12/03 08:03:22;;;;;;;35.90;17.50;;;5.20;69.00;;;;;;5032634;28;20032;-65
2022/12/03 08:05:47;;;;;;;33.53;18.07;;;5.20;68.90;;;;;;5038062;28;20521;-65
2022/12/03 08:08:13;;;;;;;40.23;18.33;;;5.20;68.80;;;;;;5037006;28;20366;-65
2022/12/03 08:10:39;;;;;;;37.33;19.23;;;5.10;68.80;;;;;;5036895;28;20025;-65
2022/12/03 08:13:15;;;;;;;42.57;20.27;;;5.20;68.80;;;;;;5035433;28;20041;-65
2022/12/03 08:15:41;;;;;;;36.70;18.20;;;5.20;68.80;;;;;;5041457;28;20060;-66
2022/12/03 08:18:17;;;;;;;38.87;18.87;;;5.10;68.80;;;;;;5041869;28;20030;-66
2022/12/03 08:20:45;;;;;;;39.53;20.67;;;5.10;68.80;;;;;;5036723;28;20474;-65
2022/12/03 08:23:19;;;;;;;37.13;19.17;;;5.10;68.80;;;;;;5037056;28;20056;-66
2022/12/03 08:25:47;;;;;;;43.37;19.47;;;5.10;68.80;;;;;;5036737;28;20493;-65
2022/12/03 08:28:18;;;;;;;40.13;19.40;;;5.10;68.80;;;;;;5033080;28;20033;-65
2022/12/03 08:31:00;;;;;;;39.50;18.77;;;5.10;68.80;;;;;;5033934;28;20051;-67
2022/12/03 08:33:32;;;;;;;42.28;18.67;;;5.10;68.90;;;;;;5039940;28;20032;-64
2022/12/03 08:35:57;;;;;;;40.17;18.50;;;5.10;68.80;;;;;;5029857;28;20053;-66
2022/12/03 08:38:24;;;;;;;40.13;19.00;;;5.10;68.80;;;;;;5047487;28;20033;-65
2022/12/03 08:40:51;;;;;;;44.80;20.13;;;5.00;68.70;;;;;;5034672;28;20033;-65
2022/12/03 08:43:30;;;;;;;46.77;20.13;;;5.00;68.70;;;;;;5033125;28;20477;-65
2022/12/03 08:45:56;;;;;;;40.13;20.07;;;5.00;68.70;;;;;;5032572;28;20041;-64
2022/12/03 08:48:36;;;;;;;38.57;19.13;;;5.00;68.70;;;;;;5036343;28;20389;-64
2022/12/03 08:51:14;;;;;;;36.10;17.40;;;5.00;68.70;;;;;;5023047;28;20025;-66
2022/12/03 08:53:49;;;;;;;37.53;18.83;;;5.00;68.80;;;;;;5033158;28;20090;-65
2022/12/03 08:56:29;;;;;;;38.23;18.83;;;5.00;68.80;;;;;;5035489;28;20033;-64
2022/12/03 08:59:01;;;;;;;39.17;17.90;;;5.00;68.80;;;;;;5034289;28;20025;-64
2022/12/03 09:01:44;;;;;;;39.20;17.63;;;5.00;68.80;;;;;;5033786;28;20049;-64
2022/12/03 09:04:21;;;;;;;37.37;17.63;;;5.00;68.80;;;;;;5035218;28;20497;-65
2022/12/03 09:06:47;;;;;;;43.00;19.20;;;5.00;68.70;;;;;;5036395;28;20121;-66
2022/12/03 09:09:13;;;;;;;42.00;18.30;;;5.00;68.80;;;;;;5033607;28;20513;-65
2022/12/03 09:11:38;;;;;;;40.23;18.27;;;5.00;68.90;;;;;;5035643;28;20104;-65
2022/12/03 09:14:05;;;;;;;39.47;17.03;;;5.00;68.80;;;;;;5034362;28;20429;-65
2022/12/03 09:16:31;;;;;;;41.63;17.40;;;5.00;68.80;;;;;;5033909;28;20029;-65
2022/12/03 09:18:56;;;;;;;38.77;18.93;;;5.00;68.80;;;;;;5035364;28;20029;-66
2022/12/03 09:21:22;;;;;;;38.37;17.10;;;5.00;68.80;;;;;;5033216;28;20106;-65
2022/12/03 09:23:48;;;;;;;42.63;19.37;;;5.10;68.80;;;;;;5050772;28;20029;-66
2022/12/03 09:26:13;;;;;;;35.57;17.07;;;5.10;68.80;;;;;;5033713;28;20074;-65
2022/12/03 09:28:39;;;;;;;36.70;17.00;;;5.10;68.70;;;;;;5035991;28;20038;-65
2022/12/03 09:31:05;;;;;;;40.33;18.53;;;5.10;68.70;;;;;;5033504;28;20048;-66
2022/12/03 09:33:31;;;;;;;32.43;15.30;;;5.00;69.30;;;;;;5034799;28;20446;-66
2022/12/03 09:35:58;;;;;;;35.57;16.13;;;5.00;68.70;;;;;;5032895;28;20100;-67
2022/12/03 09:38:24;;;;;;;35.47;16.10;;;5.00;68.70;;;;;;5026542;28;20057;-65
2022/12/03 09:40:50;;;;;;;35.77;16.50;;;5.00;68.60;;;;;;5034531;28;20037;-65
2022/12/03 09:43:16;;;;;;;35.27;16.57;;;5.10;68.70;;;;;;5034491;28;20017;-65
2022/12/03 09:45:46;;;;;;;33.50;15.47;;;5.00;68.60;;;;;;5034417;28;20121;-66
2022/12/03 09:48:15;;;;;;;36.73;16.03;;;5.00;68.60;;;;;;5035380;28;20119;-66
2022/12/03 09:50:41;;;;;;;37.00;17.43;;;5.00;68.70;;;;;;5033022;28;20126;-66
2022/12/03 09:53:13;;;;;;;35.30;15.47;;;5.00;68.60;;;;;;5033846;28;20033;-65
2022/12/03 09:55:39;;;;;;;35.77;15.63;;;5.00;68.60;;;;;;5034244;28;20025;-65
2022/12/03 09:58:13;;;;;;;34.23;16.90;;;5.00;68.60;;;;;;5030606;28;20373;-65
2022/12/03 10:00:40;;;;;;;35.03;16.43;;;5.00;68.60;;;;;;5033527;28;20029;-67
2022/12/03 10:03:10;;;;;;;32.93;16.53;;;5.00;68.60;;;;;;5034034;28;20053;-65
2022/12/03 10:05:35;;;;;;;36.47;16.03;;;5.00;68.50;;;;;;5034944;28;20040;-65
2022/12/03 10:08:07;;;;;;;36.53;15.40;;;5.00;68.60;;;;;;5027523;28;20120;-65
2022/12/03 10:10:34;;;;;;;28.27;13.43;;;5.00;68.60;;;;;;5029235;28;20021;-65
2022/12/03 10:13:00;;;;;;;30.60;15.33;;;5.00;68.60;;;;;;5032216;28;20082;-65
2022/12/03 10:15:26;;;;;;;30.07;13.47;;;4.90;68.60;;;;;;5033660;28;20033;-65
2022/12/03 10:17:54;;;;;;;30.97;13.10;;;4.90;68.60;;;;;;5032589;28;20035;-66
2022/12/03 10:20:21;;;;;;;30.63;14.27;;;4.90;68.70;;;;;;5032763;28;20045;-66
2022/12/03 10:22:47;;;;;;;30.90;14.17;;;5.00;68.70;;;;;;5032066;28;20504;-64
2022/12/03 10:25:17;;;;;;;30.30;13.90;;;5.00;68.70;;;;;;5033791;28;20064;-66
2022/12/03 10:27:53;;;;;;;30.67;14.20;;;4.90;68.70;;;;;;5031347;28;20083;-65
2022/12/03 10:30:22;;;;;;;30.50;13.67;;;4.90;68.90;;;;;;5032822;28;20036;-65
2022/12/03 10:32:49;;;;;;;30.60;13.73;;;4.90;68.90;;;;;;5030889;28;20018;-65
2022/12/03 10:35:20;;;;;;;30.53;13.43;;;4.90;69.00;;;;;;5033256;28;20132;-65
2022/12/03 10:37:54;;;;;;;31.20;13.60;;;4.80;69.10;;;;;;5027261;28;20365;-65
2022/12/03 10:40:24;;;;;;;30.20;13.47;;;4.80;69.20;;;;;;5032802;28;20021;-65
2022/12/03 10:43:10;;;;;;;31.07;13.37;;;4.80;69.20;;;;;;5033319;28;20124;-65
2022/12/03 10:45:36;;;;;;;28.33;13.60;;;4.90;69.30;;;;;;5032017;28;20034;-65
2022/12/03 10:48:03;;;;;;;31.20;14.83;;;4.90;69.30;;;;;;5031275;28;20033;-65
2022/12/03 10:50:29;;;;;;;28.23;13.53;;;4.90;69.30;;;;;;5032933;28;20030;-66
2022/12/03 10:52:55;;;;;;;25.67;12.27;;;4.90;69.40;;;;;;5032769;28;20113;-65
2022/12/03 10:55:21;;;;;;;29.13;13.30;;;5.00;69.30;;;;;;5034561;28;20025;-65
2022/12/03 10:57:47;;;;;;;28.23;13.07;;;5.00;69.20;;;;;;5032292;28;20021;-65
2022/12/03 11:00:17;;;;;;;26.53;12.10;;;5.00;69.30;;;;;;5033311;28;20033;-65
2022/12/03 11:02:44;;;;;;;26.52;12.23;;;4.90;69.20;;;;;;5033247;28;20064;-66
2022/12/03 11:05:15;;;;;;;28.77;13.57;;;4.90;69.40;;;;;;5033037;28;20033;-67
2022/12/03 11:07:42;;;;;;;28.43;12.03;;;4.90;69.50;;;;;;5033511;28;20037;-65
2022/12/03 11:10:14;;;;;;;32.33;13.97;;;4.90;69.40;;;;;;5034120;28;20083;-65
2022/12/03 11:12:39;;;;;;;29.13;13.73;;;4.90;69.50;;;;;;5033530;28;20041;-62
2022/12/03 11:15:12;;;;;;;29.20;11.90;;;4.90;69.60;;;;;;5031563;28;20060;-68
2022/12/03 11:17:52;;;;;;;26.37;12.17;;;4.90;69.70;;;;;;5030379;28;20041;-67
2022/12/03 11:20:46;;;;;;;25.13;11.53;;;4.90;69.70;;;;;;5033006;28;20042;-66
2022/12/03 11:23:12;;;;;;;27.40;11.87;;;4.90;69.70;;;;;;5027624;28;20501;-66
2022/12/03 11:25:49;;;;;;;26.23;11.43;;;4.80;69.70;;;;;;5033537;28;20060;-66
2022/12/03 11:28:30;;;;;;;28.60;10.97;;;4.80;69.90;;;;;;5018833;28;20037;-66
2022/12/03 11:30:59;;;;;;;;;;;4.80;69.90;;;;;;5030515;28;20053;-66
2022/12/03 11:33:37;;;;;;;25.03;11.20;;;4.80;69.90;;;;;;5030149;28;20329;-66
2022/12/03 11:36:03;;;;;;;26.10;10.67;;;4.80;69.90;;;;;;5028838;28;20060;-66
2022/12/03 11:38:44;;;;;;;26.73;12.70;;;4.80;69.90;;;;;;5032227;28;20025;-66
2022/12/03 11:41:16;;;;;;;26.75;11.27;;;4.80;69.90;;;;;;5034982;28;20108;-66
2022/12/03 11:43:56;;;;;;;23.65;10.43;;;4.80;69.90;;;;;;5020539;28;20048;-66
2022/12/03 11:46:23;;;;;;;27.60;11.27;;;4.80;70.00;;;;;;5036877;28;20041;-66
2022/12/03 11:48:51;;;;;;;23.57;12.00;;;4.90;70.00;;;;;;5038005;28;20117;-66
2022/12/03 11:51:20;;;;;;;25.10;12.17;;;4.90;70.10;;;;;;5037022;28;20057;-66
2022/12/03 11:53:46;;;;;;;27.93;12.43;;;4.90;70.10;;;;;;5037611;28;20104;-67
2022/12/03 11:56:18;;;;;;;30.63;12.50;;;4.90;70.10;;;;;;5038088;28;20060;-67
2022/12/03 11:58:46;;;;;;;26.00;11.67;;;4.90;70.80;;;;;;5036988;28;20103;-67
2022/12/03 12:01:14;;;;;;;29.83;12.70;;;4.90;70.10;;;;;;5034885;28;20025;-66
2022/12/03 12:03:47;;;;;;;29.03;11.90;;;4.90;70.10;;;;;;5036923;28;20025;-66
2022/12/03 12:06:15;;;;;;;26.90;12.97;;;4.90;70.10;;;;;;5037925;28;20446;-66
2022/12/03 12:08:50;;;;;;;26.27;12.43;;;4.90;70.00;;;;;;5037702;28;20108;-66
2022/12/03 12:11:25;;;;;;;28.37;11.50;;;4.90;70.00;;;;;;5037827;28;20063;-66
2022/12/03 12:13:58;;;;;;;30.73;11.13;;;4.80;70.00;;;;;;5036385;28;20030;-66
2022/12/03 12:16:50;;;;;;;27.93;12.43;;;4.80;70.10;;;;;;5037244;28;20026;-66
2022/12/03 12:19:33;;;;;;;30.80;12.87;;;4.80;70.10;;;;;;5052820;28;20026;-66
2022/12/03 12:22:15;;;;;;;30.20;12.97;;;4.80;70.80;;;;;;5052843;28;20371;-67
2022/12/03 12:24:42;;;;;;;25.77;11.50;;;4.80;70.20;;;;;;5036859;28;20033;-67
2022/12/03 12:27:10;;;;;;;32.37;15.03;;;4.80;70.30;;;;;;5037334;28;20037;-67
2022/12/03 12:29:38;;;;;;;29.33;13.10;;;4.80;70.30;;;;;;5035427;28;20319;-66
2022/12/03 12:32:16;;;;;;;28.43;13.33;;;4.80;70.30;;;;;;5035441;28;20017;-68
2022/12/03 12:34:47;;;;;;;29.37;12.83;;;4.80;70.30;;;;;;5031917;28;20073;-66
2022/12/03 12:37:19;;;;;;;32.13;14.15;;;4.80;70.30;;;;;;5035011;28;20026;-66
2022/12/03 12:39:45;;;;;;;28.30;14.68;;;4.80;70.30;;;;;;5035518;28;20046;-67
2022/12/03 12:42:35;;;;;;;31.07;13.37;;;4.80;70.30;;;;;;5047396;28;20029;-69
2022/12/03 12:45:22;;;;;;;29.57;13.33;;;4.80;70.30;;;;;;5030349;28;20069;-67
2022/12/03 12:47:59;;;;;;;30.67;13.13;;;4.90;70.40;;;;;;5044518;28;20095;-68
2022/12/03 12:50:25;;;;;;;26.90;13.90;;;4.90;70.30;;;;;;5022628;28;20067;-68
2022/12/03 12:52:53;;;;;;;29.00;12.90;;;4.90;70.30;;;;;;5035541;28;20450;-67
2022/12/03 12:55:19;;;;;;;34.27;14.73;;;4.90;70.30;;;;;;5049443;28;20343;-68
2022/12/03 12:57:45;;;;;;;28.80;12.77;;;4.80;70.20;;;;;;5034920;28;20052;-68
2022/12/03 13:00:17;;;;;;;32.83;15.80;;;4.90;70.30;;;;;;5032682;28;20439;-67
2022/12/03 13:02:57;;;;;;;32.75;14.75;;;4.90;70.20;;;;;;5032749;28;20034;-68
2022/12/03 13:05:26;;;;;;;31.63;15.43;;;4.90;70.20;;;;;;5034163;28;20033;-68